Time;durP1;ratioP1;P1;durP2;ratioP2;P2;SDS_P1;SDS_P2;PMS_P1;PMS_P2;Temp;Humidity;BMP_temperature;BMP_pressure;BME280_temperature;BME280_humidity;BME280_pressure;Samples;Min_cycle;Max_cycle;Signal;HPM_P1;HPM_P2
2022/04/21 00:01:24;;;;;;;2.55;2.35;;;;;;;1.71;76.33;96385.06;4994801;28;20469;-65
2022/04/21 00:03:50;;;;;;;2.92;2.58;;;;;;;1.67;76.19;96389.41;4994693;28;20377;-64
2022/04/21 00:06:16;;;;;;;4.32;2.33;;;;;;;1.64;76.29;96397.16;4994809;28;20026;-64
2022/04/21 00:08:42;;;;;;;3.10;2.85;;;;;;;1.62;76.77;96391.13;4994680;28;20034;-63
2022/04/21 00:11:07;;;;;;;3.67;3.38;;;;;;;1.63;76.39;96395.44;4994625;28;20037;-63
2022/04/21 00:13:34;;;;;;;4.35;3.95;;;;;;;1.51;76.53;96391.19;4994556;28;20034;-63
2022/04/21 00:16:00;;;;;;;5.35;4.85;;;;;;;1.53;76.09;96398.94;4994374;28;20030;-63
2022/04/21 00:18:26;;;;;;;3.75;3.45;;;;;;;1.49;76.28;96400.66;4994562;28;20022;-63
2022/04/21 00:20:52;;;;;;;2.88;2.67;;;;;;;1.41;76.00;96403.25;4994402;28;20037;-62
2022/04/21 00:23:27;;;;;;;2.35;2.15;;;;;;;1.31;76.12;96404.16;4994476;28;20027;-64
2022/04/21 00:25:54;;;;;;;2.70;2.50;;;;;;;1.29;76.22;96396.44;4994322;28;20496;-64
2022/04/21 00:28:20;;;;;;;2.47;2.28;;;;;;;1.26;76.35;96410.19;4994329;28;20022;-64
2022/04/21 00:30:45;;;;;;;4.53;2.40;;;;;;;1.21;76.37;96409.31;4994322;28;20033;-64
2022/04/21 00:33:11;;;;;;;2.50;2.30;;;;;;;1.18;76.37;96405.91;4994329;28;20358;-63
2022/04/21 00:35:37;;;;;;;2.88;2.67;;;;;;;1.15;76.72;96404.22;4994135;28;20034;-63
2022/04/21 00:38:02;;;;;;;3.55;2.97;;;;;;;1.04;77.19;96405.94;4994227;28;20500;-62
2022/04/21 00:40:29;;;;;;;2.85;2.63;;;;;;;0.96;77.81;96408.56;4993958;28;20520;-64
2022/04/21 00:42:57;;;;;;;2.97;2.67;;;;;;;0.89;77.88;96412.84;4994053;28;20129;-64
2022/04/21 00:45:23;;;;;;;4.60;3.30;;;;;;;0.82;78.28;96414.59;4994088;28;20372;-64
2022/04/21 00:47:51;;;;;;;3.30;3.00;;;;;;;0.79;78.56;96416.31;4993898;28;20105;-64
2022/04/21 00:50:25;;;;;;;3.30;3.00;;;;;;;0.75;78.69;96416.31;4994036;28;20018;-65
2022/04/21 00:52:55;;;;;;;3.50;3.20;;;;;;;0.68;78.93;96418.88;4993971;28;20027;-64
2022/04/21 00:55:22;;;;;;;3.58;3.28;;;;;;;0.64;79.30;96423.19;4993862;28;20026;-62
2022/04/21 00:57:49;;;;;;;4.38;3.90;;;;;;;0.57;79.79;96427.47;4993966;28;20030;-63
2022/04/21 01:00:16;;;;;;;3.92;3.63;;;;;;;0.59;79.91;96430.91;4993883;28;20033;-65
2022/04/21 01:03:16;;;;;;;4.20;3.75;;;;;;;0.53;80.57;96435.19;4993773;28;20061;-64
2022/04/21 01:05:34;;;;;;;6.40;3.97;;;;;;;0.53;80.97;96435.19;4989943;28;20042;-63
2022/04/21 01:08:00;;;;;;;4.07;3.67;;;;;;;0.55;80.93;96436.06;4993742;28;20022;-64
2022/04/21 01:10:28;;;;;;;3.75;3.40;;;;;;;0.54;80.44;96442.06;4993706;28;20026;-65
2022/04/21 01:12:54;;;;;;;3.83;3.53;;;;;;;0.45;80.80;96446.34;4993660;28;20026;-64
2022/04/21 01:15:20;;;;;;;4.70;4.20;;;;;;;0.42;81.55;96458.38;4993690;28;20435;-63
2022/04/21 01:17:45;;;;;;;5.47;4.13;;;;;;;0.41;81.94;96451.47;4993719;28;20023;-63
2022/04/21 01:20:16;;;;;;;4.03;3.63;;;;;;;0.31;82.02;96459.22;4993562;28;20054;-64
2022/04/21 01:22:41;;;;;;;4.75;4.30;;;;;;;0.34;81.97;96456.66;4993746;28;20018;-64
2022/04/21 01:25:07;;;;;;;5.15;4.65;;;;;;;0.38;82.22;96460.06;4993600;28;20571;-63
2022/04/21 01:27:35;;;;;;;4.50;4.03;;;;;;;0.43;81.64;96455.78;4976059;28;20388;-64
2022/04/21 01:30:02;;;;;;;3.85;3.22;;;;;;;0.45;81.59;96458.38;4993449;28;20022;-63
2022/04/21 01:32:28;;;;;;;4.03;3.63;;;;;;;0.47;81.01;96442.06;4993461;28;20473;-63
2022/04/21 01:34:54;;;;;;;4.13;3.50;;;;;;;0.48;80.90;96440.34;4993555;28;20038;-65
2022/04/21 01:42:48;;;;;;;4.00;3.60;;;;;;;0.39;80.31;96458.38;4993512;28;20072;-64
2022/04/21 01:45:14;;;;;;;3.97;3.58;;;;;;;0.32;80.45;96457.47;4993412;28;20046;-63
2022/04/21 01:47:39;;;;;;;4.05;3.38;;;;;;;0.24;80.58;96450.63;4993409;28;20023;-63
2022/04/21 01:50:08;;;;;;;4.35;3.78;;;;;;;0.19;81.08;96462.63;4993298;28;20023;-65
2022/04/21 01:52:37;;;;;;;4.57;4.18;;;;;;;0.17;81.39;96458.31;4993348;28;20465;-63
2022/04/21 01:55:07;;;;;;;4.45;4.05;;;;;;;0.20;81.99;96451.47;4993226;28;20033;-63
2022/04/21 01:57:34;;;;;;;4.78;3.90;;;;;;;0.23;82.03;96446.34;4993342;28;20085;-63
2022/04/21 02:00:00;;;;;;;4.00;3.58;;;;;;;0.22;82.28;96441.19;4996924;28;20058;-65
2022/04/21 02:02:25;;;;;;;4.50;4.10;;;;;;;0.25;82.13;96438.63;4997092;28;20065;-65
2022/04/21 02:04:51;;;;;;;4.40;4.00;;;;;;;0.25;82.11;96443.75;4996988;28;20388;-65
2022/04/21 02:07:17;;;;;;;4.43;4.03;;;;;;;0.30;81.71;96452.34;4997014;28;20092;-64
2022/04/21 02:09:42;;;;;;;5.05;3.97;;;;;;;0.37;81.62;96450.63;4996897;28;20493;-63
2022/04/21 02:12:09;;;;;;;4.40;4.00;;;;;;;0.38;81.50;96454.91;4996876;28;20396;-65
2022/04/21 02:14:34;;;;;;;4.60;4.15;;;;;;;0.43;80.98;96458.38;4996636;28;20022;-66
2022/04/21 02:17:00;;;;;;;5.07;3.95;;;;;;;0.41;80.98;96456.63;4996733;28;20029;-63
2022/04/21 02:19:28;;;;;;;4.43;4.03;;;;;;;0.38;80.99;96457.50;4996774;28;20049;-65
2022/04/21 02:21:54;;;;;;;4.63;4.00;;;;;;;0.43;80.37;96450.66;4996633;28;20506;-66
2022/04/21 02:24:19;;;;;;;4.05;3.58;;;;;;;0.42;79.98;96445.50;4996696;28;20034;-64
2022/04/21 02:26:45;;;;;;;4.03;3.72;;;;;;;0.37;80.04;96445.50;4996592;28;20026;-65
2022/04/21 02:29:11;;;;;;;3.45;3.13;;;;;;;0.31;79.52;96441.19;4996588;28;20385;-66
2022/04/21 02:31:36;;;;;;;3.83;3.42;;;;;;;0.16;79.95;96441.16;4996489;28;20041;-62
2022/04/21 02:34:02;;;;;;;3.58;3.28;;;;;;;0.06;81.05;96442.88;4996468;28;20396;-63
2022/04/21 02:36:28;;;;;;;4.93;4.50;;;;;;;0.07;81.32;96437.72;4996387;28;20026;-63
2022/04/21 02:38:53;;;;;;;4.07;3.67;;;;;;;0.02;81.97;96434.28;4996298;28;20026;-64
2022/04/21 02:41:19;;;;;;;5.15;4.38;;;;;;;-0.07;82.84;96424.84;4996074;28;20374;-63
2022/04/21 02:43:44;;;;;;;6.47;4.25;;;;;;;-0.03;83.69;96418.84;4996217;28;20485;-65
2022/04/21 02:46:10;;;;;;;4.50;4.00;;;;;;;-0.01;83.08;96414.56;4996239;28;20019;-62
2022/04/21 02:48:35;;;;;;;3.55;3.25;;;;;;;0.01;82.46;96418.84;4996208;28;20385;-63
2022/04/21 02:51:01;;;;;;;3.78;3.42;;;;;;;-0.01;81.46;96419.72;4996242;28;20100;-64
2022/04/21 02:58:55;;;;;;;4.43;3.97;;;;;;;-0.30;82.22;96417.06;4996170;28;20057;-65
2022/04/21 03:01:20;;;;;;;5.20;4.20;;;;;;;-0.31;82.08;96411.06;4995936;28;20030;-64
2022/04/21 03:03:46;;;;;;;4.95;4.00;;;;;;;-0.21;82.12;96418.81;4995941;28;20093;-65
2022/04/21 03:06:12;;;;;;;7.00;4.07;;;;;;;-0.15;81.84;96411.94;4995843;28;20045;-64
2022/04/21 03:08:38;;;;;;;3.45;3.15;;;;;;;-0.15;81.12;96413.69;4995862;28;20519;-66
2022/04/21 03:11:03;;;;;;;3.92;3.60;;;;;;;-0.21;81.14;96416.22;4995939;28;20026;-64
2022/04/21 03:13:29;;;;;;;3.55;3.25;;;;;;;-0.24;81.18;96419.63;4995922;28;20031;-65
2022/04/21 03:15:55;;;;;;;3.80;3.50;;;;;;;-0.36;81.82;96417.03;4995642;28;20173;-66
2022/04/21 03:18:21;;;;;;;5.18;4.60;;;;;;;-0.40;82.56;96413.59;4995647;28;20018;-63
2022/04/21 03:26:17;;;;;;;3.65;3.28;;;;;;;-0.19;81.32;96429.94;4995597;28;20061;-63
2022/04/21 03:28:43;;;;;;;3.03;2.72;;;;;;;-0.21;81.00;96429.94;4995399;28;20492;-64
2022/04/21 03:31:09;;;;;;;3.60;3.28;;;;;;;-0.22;81.24;96430.78;4995380;28;20110;-65
2022/04/21 03:33:34;;;;;;;3.78;3.22;;;;;;;-0.22;81.36;96423.06;4995496;28;20161;-65
2022/04/21 03:36:00;;;;;;;3.70;3.17;;;;;;;-0.24;81.74;96426.50;4995286;28;20431;-64
2022/04/21 03:38:26;;;;;;;3.60;3.20;;;;;;;-0.20;81.21;96431.66;4995269;28;20045;-63
2022/04/21 03:40:51;;;;;;;3.47;3.17;;;;;;;-0.17;81.35;96431.69;4995003;28;20043;-64
2022/04/21 03:43:17;;;;;;;3.22;2.92;;;;;;;-0.07;81.21;96435.13;4995204;28;20133;-64
2022/04/21 03:45:42;;;;;;;3.25;2.60;;;;;;;-0.03;80.90;96426.53;4995174;28;20030;-65
2022/04/21 03:48:08;;;;;;;3.42;3.13;;;;;;;-0.05;80.44;96423.13;4995117;28;20027;-63
2022/04/21 03:50:34;;;;;;;3.38;3.08;;;;;;;-0.06;81.00;96420.56;4995128;28;20027;-65
2022/04/21 03:53:00;;;;;;;3.38;3.00;;;;;;;-0.04;80.27;96424.84;4994967;28;20101;-62
2022/04/21 03:55:26;;;;;;;5.15;2.83;;;;;;;-0.08;80.33;96424.81;4994844;28;20027;-64
2022/04/21 03:57:52;;;;;;;3.35;2.88;;;;;;;-0.05;80.51;96428.28;4994891;28;20105;-65
2022/04/21 04:00:22;;;;;;;5.43;3.30;;;;;;;0.03;81.09;96428.28;4994901;28;20056;-65
2022/04/21 04:02:48;;;;;;;;;;;;;;;0.28;81.60;96423.19;4995157;28;20034;-66
2022/04/21 04:05:14;;;;;;;4.43;4.03;;;;;;;0.66;81.45;96418.88;4994750;28;19913;-63
2022/04/21 04:13:08;;;;;;;2.45;2.30;;;;;;;2.34;75.48;96416.50;4994783;28;20484;-64
2022/04/21 04:15:33;;;;;;;3.00;2.80;;;;;;;2.87;72.45;96413.50;4994442;28;20026;-64
2022/04/21 04:18:00;;;;;;;2.17;1.98;;;;;;;3.36;70.99;96406.09;4994602;28;20022;-66
2022/04/21 04:20:25;;;;;;;2.40;2.20;;;;;;;3.82;68.29;96406.44;4994322;28;20101;-65
2022/04/21 04:22:51;;;;;;;1.70;1.60;;;;;;;4.27;68.34;96413.53;4994327;28;20112;-62
2022/04/21 04:25:17;;;;;;;1.80;1.70;;;;;;;4.67;66.05;96404.31;4994393;28;20022;-62
2022/04/21 04:27:42;;;;;;;2.20;2.00;;;;;;;4.94;64.55;96402.13;4994361;28;20034;-64
2022/04/21 04:30:09;;;;;;;2.20;2.03;;;;;;;5.25;63.11;96398.97;4994419;28;20029;-65
2022/04/21 04:32:36;;;;;;;3.92;1.80;;;;;;;5.59;62.12;96405.22;4994227;28;20036;-63
2022/04/21 04:35:02;;;;;;;1.88;1.75;;;;;;;5.98;60.96;96412.22;4994262;28;20023;-63
2022/04/21 04:37:28;;;;;;;2.30;2.10;;;;;;;6.33;60.29;96404.56;4994238;28;20106;-65
2022/04/21 04:39:55;;;;;;;1.70;1.50;;;;;;;6.73;59.02;96402.72;4993905;28;20117;-64
2022/04/21 04:42:22;;;;;;;1.63;1.52;;;;;;;7.06;58.09;96401.91;4994064;28;20036;-63
2022/04/21 04:46:34;;;;;;;1.50;1.40;;;;;;;7.44;58.50;96400.00;4994051;28;20117;-63
2022/04/21 04:47:35;;;;;;;1.50;1.40;;;;;;;7.97;56.89;96414.16;4994087;28;20484;-65
2022/04/21 04:50:01;;;;;;;1.50;1.38;;;;;;;8.13;55.56;96415.44;4994053;28;20030;-62
2022/04/21 04:52:26;;;;;;;1.48;1.38;;;;;;;8.32;55.27;96414.00;4993974;28;20031;-64
2022/04/21 04:54:52;;;;;;;1.70;1.60;;;;;;;8.62;55.03;96422.66;4993988;28;20029;-64
2022/04/21 04:57:18;;;;;;;3.72;1.45;;;;;;;8.86;54.69;96439.28;4994066;28;20054;-64
2022/04/21 04:59:43;;;;;;;3.88;1.75;;;;;;;9.18;53.84;96442.56;4994006;28;20101;-63
2022/04/21 05:02:09;;;;;;;1.52;1.42;;;;;;;9.00;52.83;96440.59;4993983;28;20037;-63
2022/04/21 05:04:36;;;;;;;1.60;1.50;;;;;;;8.91;52.18;96449.56;4993790;28;20026;-63
2022/04/21 05:07:02;;;;;;;1.77;1.67;;;;;;;8.76;52.97;96443.09;4993834;28;20045;-64
2022/04/21 05:09:27;;;;;;;2.28;2.08;;;;;;;8.81;53.26;96443.78;4993794;28;20468;-62
2022/04/21 05:11:55;;;;;;;2.10;2.00;;;;;;;8.42;54.25;96435.41;4993812;28;20019;-63
2022/04/21 05:14:22;;;;;;;1.50;1.40;;;;;;;8.50;54.16;96427.34;4993621;28;20109;-62
2022/04/21 05:16:49;;;;;;;1.80;1.70;;;;;;;8.62;55.15;96425.28;4993663;28;20018;-63
2022/04/21 05:19:17;;;;;;;1.80;1.70;;;;;;;8.96;55.19;96425.03;4993720;28;20022;-63
2022/04/21 05:21:44;;;;;;;1.20;1.20;;;;;;;9.45;56.48;96421.63;4993720;28;20109;-62
2022/04/21 05:24:10;;;;;;;1.45;1.35;;;;;;;9.91;55.72;96425.25;4993503;28;20015;-63
2022/04/21 05:26:40;;;;;;;1.60;1.50;;;;;;;10.39;54.24;96426.06;4993530;28;20366;-63
2022/04/21 05:30:55;;;;;;;1.25;1.25;;;;;;;10.83;52.89;96421.72;4993466;28;20031;-62
2022/04/21 05:31:58;;;;;;;1.60;1.50;;;;;;;10.99;53.42;96421.97;4993467;28;20034;-63
2022/04/21 05:34:26;;;;;;;1.63;1.52;;;;;;;11.44;52.93;96419.22;4996450;28;20026;-61
2022/04/21 05:36:52;;;;;;;1.60;1.50;;;;;;;11.95;50.72;96414.34;4997428;28;20025;-61
2022/04/21 05:39:18;;;;;;;1.70;1.60;;;;;;;12.37;50.97;96412.44;4997401;28;20022;-62
2022/04/21 05:41:44;;;;;;;1.60;1.50;;;;;;;12.78;51.06;96423.66;4997410;28;20029;-62
2022/04/21 05:44:11;;;;;;;1.83;1.50;;;;;;;12.89;50.56;96423.13;4997323;28;20380;-61
2022/04/21 05:46:37;;;;;;;1.90;1.48;;;;;;;13.00;50.20;96428.69;4997265;28;20030;-62
2022/04/21 05:49:03;;;;;;;3.22;1.80;;;;;;;13.32;48.33;96425.38;4997321;28;20026;-61
2022/04/21 05:51:29;;;;;;;1.65;1.55;;;;;;;13.30;47.37;96432.47;4997309;28;20045;-61
2022/04/21 05:53:58;;;;;;;1.90;1.67;;;;;;;13.55;47.68;96433.91;4997106;28;20027;-62
2022/04/21 05:56:24;;;;;;;2.10;1.90;;;;;;;13.88;47.77;96435.66;4996994;28;20384;-61
2022/04/21 05:58:50;;;;;;;1.80;1.70;;;;;;;13.97;48.48;96434.31;4997200;28;20034;-61
2022/04/21 06:01:16;;;;;;;2.00;1.90;;;;;;;13.91;46.64;96439.94;4997134;28;20019;-62
2022/04/21 06:03:42;;;;;;;2.00;1.90;;;;;;;13.86;47.24;96441.94;4996996;28;20033;-60
2022/04/21 06:06:09;;;;;;;2.50;1.83;;;;;;;13.93;49.56;96437.22;4996911;28;20027;-61
2022/04/21 06:08:35;;;;;;;2.05;1.95;;;;;;;14.09;49.28;96429.34;4996909;28;20105;-61
2022/04/21 06:11:02;;;;;;;2.00;1.80;;;;;;;14.63;46.52;96439.53;4996944;28;20033;-60
2022/04/21 06:13:27;;;;;;;1.95;1.83;;;;;;;15.16;45.53;96441.88;4996966;28;20069;-61
2022/04/21 06:15:54;;;;;;;3.05;1.92;;;;;;;15.61;45.38;96438.38;4996718;28;20030;-61
2022/04/21 06:18:20;;;;;;;1.85;1.75;;;;;;;15.64;45.85;96443.47;4996808;28;20027;-61
2022/04/21 06:20:47;;;;;;;2.50;2.08;;;;;;;15.35;46.51;96450.50;4996632;28;20081;-62
2022/04/21 06:23:13;;;;;;;2.08;1.98;;;;;;;15.16;46.52;96449.78;4996741;28;20027;-61
2022/04/21 06:25:39;;;;;;;2.25;2.05;;;;;;;14.66;47.74;96447.25;4996781;28;20029;-61
2022/04/21 06:28:05;;;;;;;1.90;1.80;;;;;;;14.24;47.16;96448.72;4996728;28;20097;-62
2022/04/21 06:30:31;;;;;;;2.10;1.90;;;;;;;14.11;47.92;96444.13;4996487;28;20552;-62
2022/04/21 06:32:58;;;;;;;2.15;1.95;;;;;;;14.17;49.40;96447.34;4996415;28;20492;-62
2022/04/21 06:35:25;;;;;;;2.00;1.90;;;;;;;14.09;49.04;96438.06;4996510;28;20041;-61
2022/04/21 06:37:51;;;;;;;2.72;2.10;;;;;;;14.07;47.12;96441.72;4996464;28;20033;-61
2022/04/21 06:40:16;;;;;;;1.80;1.70;;;;;;;14.27;48.93;96449.38;4996306;28;20129;-62
2022/04/21 06:42:42;;;;;;;2.08;1.92;;;;;;;14.35;46.83;96443.72;4996303;28;20484;-62
2022/04/21 06:48:04;;;;;;;2.70;2.00;;;;;;;13.87;50.81;96438.38;4996346;28;20082;-62
2022/04/21 06:50:32;;;;;;;1.90;1.80;;;;;;;13.58;51.23;96443.38;4978821;28;20023;-62
2022/04/21 06:52:58;;;;;;;3.00;2.03;;;;;;;13.71;51.97;96446.22;4996019;28;20101;-62
2022/04/21 06:55:23;;;;;;;1.83;1.70;;;;;;;14.04;49.76;96434.84;4996073;28;20118;-61
2022/04/21 06:57:49;;;;;;;4.65;3.10;;;;;;;14.37;50.00;96436.59;4996086;28;20030;-62
2022/04/21 07:00:16;;;;;;;2.95;2.30;;;;;;;14.69;48.47;96432.25;4995928;28;20472;-61
2022/04/21 07:02:42;;;;;;;4.18;1.80;;;;;;;14.99;47.02;96431.47;4996034;28;20019;-61
2022/04/21 07:05:09;;;;;;;1.90;1.80;;;;;;;15.15;46.45;96426.16;4995837;28;20050;-62
2022/04/21 07:07:35;;;;;;;1.58;1.48;;;;;;;15.19;46.23;96426.81;4995832;28;20517;-62
2022/04/21 07:10:01;;;;;;;4.25;1.65;;;;;;;15.14;45.91;96420.03;4995845;28;20027;-62
2022/04/21 07:12:29;;;;;;;1.70;1.60;;;;;;;15.20;43.72;96423.25;4995847;28;20543;-62
2022/04/21 07:14:56;;;;;;;1.73;1.60;;;;;;;15.21;45.40;96407.34;4995770;28;20034;-62
2022/04/21 07:17:22;;;;;;;2.42;1.90;;;;;;;14.98;44.43;96419.22;4995728;28;20473;-61
2022/04/21 07:19:48;;;;;;;2.05;1.85;;;;;;;14.94;48.49;96423.84;4995585;28;20092;-61
2022/04/21 07:22:14;;;;;;;1.83;1.73;;;;;;;15.09;46.09;96419.47;4995678;28;20022;-61
2022/04/21 07:24:39;;;;;;;2.10;1.95;;;;;;;15.38;46.80;96411.59;4995526;28;20073;-61
2022/04/21 07:27:05;;;;;;;2.20;2.00;;;;;;;15.40;45.19;96409.75;4995417;28;20089;-62
2022/04/21 07:29:30;;;;;;;3.28;2.08;;;;;;;15.26;46.54;96412.34;4995446;28;20029;-62
2022/04/21 07:31:56;;;;;;;2.10;2.00;;;;;;;15.37;47.13;96407.28;4995400;28;20022;-62
2022/04/21 07:34:23;;;;;;;2.00;1.90;;;;;;;15.52;45.61;96400.25;4995276;28;20018;-62
2022/04/21 07:36:49;;;;;;;2.10;1.90;;;;;;;15.52;45.94;96405.53;4995336;28;20117;-61
2022/04/21 07:39:15;;;;;;;2.10;2.00;;;;;;;15.32;45.75;96409.34;4994885;28;20121;-62
2022/04/21 07:41:41;;;;;;;2.28;2.10;;;;;;;15.06;47.04;96410.88;4995255;28;20098;-62
2022/04/21 07:44:07;;;;;;;3.05;1.85;;;;;;;15.27;43.66;96412.22;4995075;28;20053;-62
2022/04/21 07:46:33;;;;;;;2.40;2.08;;;;;;;15.00;46.93;96414.72;4995160;28;20022;-60
2022/04/21 07:51:42;;;;;;;2.88;2.00;;;;;;;14.71;44.86;96422.47;4995388;28;20444;-61
2022/04/21 07:54:08;;;;;;;1.98;1.88;;;;;;;15.00;46.24;96420.84;4995117;28;20035;-62
2022/04/21 07:56:34;;;;;;;2.58;2.38;;;;;;;14.90;44.53;96428.41;4994015;28;20034;-62
2022/04/21 07:59:00;;;;;;;2.10;2.00;;;;;;;14.66;45.17;96423.56;4994949;28;20108;-62
2022/04/21 08:01:26;;;;;;;3.30;2.03;;;;;;;14.69;47.79;96421.72;4994888;28;20059;-62
2022/04/21 08:03:52;;;;;;;2.92;2.58;;;;;;;14.58;48.44;96423.16;4994846;28;20512;-62
2022/04/21 08:06:17;;;;;;;3.38;3.08;;;;;;;14.33;47.24;96426.31;4994826;28;20022;-61
2022/04/21 08:08:43;;;;;;;4.60;3.40;;;;;;;13.99;48.62;96427.22;4994745;28;20018;-61
2022/04/21 08:11:09;;;;;;;4.63;3.35;;;;;;;13.90;49.43;96423.28;4994553;28;20116;-61
2022/04/21 08:13:34;;;;;;;3.35;3.00;;;;;;;13.74;49.29;96427.66;4994652;28;20048;-61
2022/04/21 08:16:00;;;;;;;3.33;3.00;;;;;;;13.57;49.24;96433.81;4994682;28;20088;-62
2022/04/21 08:18:26;;;;;;;4.35;3.50;;;;;;;13.52;51.30;96429.63;4994630;28;20616;-61
2022/04/21 08:20:57;;;;;;;3.63;3.10;;;;;;;13.44;50.83;96441.44;4994461;28;20400;-62
2022/04/21 08:23:24;;;;;;;3.38;2.85;;;;;;;13.69;48.60;96438.41;4994425;28;20109;-61
2022/04/21 08:34:03;;;;;;;2.85;2.55;;;;;;;13.52;49.41;96448.03;4994641;28;20100;-60
2022/04/21 08:36:29;;;;;;;3.35;3.00;;;;;;;13.43;51.33;96453.75;4994097;28;20042;-60
2022/04/21 08:38:54;;;;;;;2.95;2.65;;;;;;;13.41;50.18;96450.34;4994155;28;20034;-61
2022/04/21 08:41:29;;;;;;;3.95;2.67;;;;;;;13.45;51.86;96457.13;4993932;28;20058;-61
2022/04/21 08:43:56;;;;;;;3.45;2.47;;;;;;;13.49;51.25;96458.69;4994186;28;20030;-62
2022/04/21 08:46:25;;;;;;;3.75;2.72;;;;;;;13.38;52.29;96459.22;4993992;28;20026;-61
2022/04/21 08:48:52;;;;;;;2.90;2.65;;;;;;;13.42;51.01;96469.59;4994054;28;20038;-61
2022/04/21 08:51:23;;;;;;;3.10;2.80;;;;;;;13.37;52.11;96472.44;4993897;28;20369;-62
2022/04/21 08:53:49;;;;;;;3.50;2.75;;;;;;;13.26;51.14;96473.81;4994031;28;20030;-62
2022/04/21 08:56:15;;;;;;;2.40;2.20;;;;;;;13.32;50.18;96464.78;4993736;28;20038;-62
2022/04/21 08:58:40;;;;;;;3.55;2.65;;;;;;;13.33;51.19;96463.84;4993886;28;20018;-62
2022/04/21 09:01:07;;;;;;;5.20;2.50;;;;;;;13.35;51.03;96469.88;4993960;28;20026;-62
2022/04/21 09:03:35;;;;;;;3.75;2.83;;;;;;;13.45;51.93;96474.69;4994037;28;20092;-61
2022/04/21 09:06:01;;;;;;;4.07;2.97;;;;;;;13.54;51.88;96476.03;4993879;28;20379;-62
2022/04/21 09:08:27;;;;;;;3.88;2.45;;;;;;;13.60;48.01;96468.66;4993689;28;20022;-62
2022/04/21 09:11:09;;;;;;;2.88;2.50;;;;;;;13.68;50.18;96472.66;4993647;28;20393;-62
2022/04/21 09:13:40;;;;;;;4.07;2.30;;;;;;;13.86;50.44;96468.22;4993758;28;20026;-62
2022/04/21 09:16:08;;;;;;;2.20;2.00;;;;;;;13.79;47.69;96467.72;4993679;28;20029;-61
2022/04/21 09:18:41;;;;;;;4.53;2.50;;;;;;;13.85;48.09;96471.81;4993641;28;20029;-62
2022/04/21 09:21:17;;;;;;;2.78;2.40;;;;;;;13.92;51.71;96472.31;4993713;28;20396;-61
2022/04/21 09:23:45;;;;;;;3.15;2.50;;;;;;;13.85;49.65;96474.44;4993629;28;20488;-63
2022/04/21 09:26:13;;;;;;;2.35;2.10;;;;;;;13.50;48.20;96473.53;4993530;28;20061;-62
2022/04/21 09:28:39;;;;;;;2.90;2.58;;;;;;;13.43;49.13;96468.63;4993552;28;20094;-62
2022/04/21 09:31:08;;;;;;;2.67;2.47;;;;;;;13.47;47.75;96459.66;4993655;28;20061;-62
2022/04/21 09:33:40;;;;;;;4.70;2.28;;;;;;;13.70;48.20;96458.50;4993479;28;20037;-62
2022/04/21 09:36:07;;;;;;;2.72;2.53;;;;;;;13.99;49.96;96465.78;4993433;28;20038;-62
2022/04/21 09:38:36;;;;;;;2.85;2.47;;;;;;;14.40;47.90;96461.88;4993450;28;20027;-61
2022/04/21 09:41:06;;;;;;;2.53;2.33;;;;;;;14.44;46.53;96462.53;4993269;28;20046;-62
2022/04/21 09:43:33;;;;;;;2.85;2.65;;;;;;;14.38;48.10;96458.47;4993509;28;20369;-63
2022/04/21 09:46:16;;;;;;;3.50;2.47;;;;;;;14.48;46.25;96472.81;4993387;28;20098;-62
2022/04/21 09:48:43;;;;;;;2.38;2.13;;;;;;;14.46;42.64;96464.19;4993488;28;20110;-62
2022/04/21 09:51:14;;;;;;;2.85;2.35;;;;;;;14.61;47.72;96451.09;4993633;28;20034;-63
2022/04/21 09:54:02;;;;;;;3.13;2.33;;;;;;;14.92;43.55;96452.03;4993449;28;20022;-61
2022/04/21 09:56:36;;;;;;;2.17;2.08;;;;;;;14.90;45.48;96451.28;4993306;28;20038;-62
2022/04/21 09:59:21;;;;;;;3.33;3.03;;;;;;;15.00;43.88;96451.59;4993336;28;20024;-62
2022/04/21 10:01:46;;;;;;;2.58;2.38;;;;;;;14.86;44.70;96457.63;4993409;28;20031;-63
2022/04/21 10:04:13;;;;;;;3.38;2.90;;;;;;;14.77;42.46;96451.06;4993308;28;20023;-62
2022/04/21 10:06:42;;;;;;;3.03;2.78;;;;;;;14.64;42.81;96454.41;4993289;28;20465;-63
2022/04/21 10:09:09;;;;;;;3.67;3.38;;;;;;;14.42;44.84;96443.38;4993197;28;20472;-63
2022/04/21 10:11:41;;;;;;;3.35;2.92;;;;;;;14.52;43.49;96437.53;4993220;28;20472;-63
2022/04/21 10:14:11;;;;;;;3.25;2.95;;;;;;;14.46;47.25;96434.38;4993258;28;20061;-62
2022/04/21 10:16:37;;;;;;;3.50;3.20;;;;;;;14.49;43.63;96440.31;4993250;28;20035;-61
2022/04/21 10:19:02;;;;;;;3.25;2.95;;;;;;;14.36;44.98;96436.69;4993712;28;20033;-62
2022/04/21 10:21:42;;;;;;;4.13;3.25;;;;;;;14.42;46.03;96431.03;4996757;28;20034;-61
2022/04/21 10:24:09;;;;;;;5.65;3.17;;;;;;;14.75;44.95;96427.47;4996723;28;20038;-62
2022/04/21 10:26:36;;;;;;;4.10;3.70;;;;;;;14.83;47.44;96436.75;4996651;28;20023;-62
2022/04/21 10:29:12;;;;;;;4.25;3.75;;;;;;;14.80;44.65;96427.25;4996584;28;20033;-63
2022/04/21 10:31:57;;;;;;;4.13;3.70;;;;;;;14.97;47.51;96428.91;4996584;28;20041;-62
2022/04/21 10:34:45;;;;;;;3.47;3.17;;;;;;;15.12;45.15;96419.28;4996499;28;20030;-63
2022/04/21 10:37:19;;;;;;;3.17;2.88;;;;;;;15.15;44.10;96419.06;4996417;28;20031;-61
2022/04/21 10:40:10;;;;;;;4.00;3.20;;;;;;;15.00;43.77;96420.00;4996426;28;20042;-63
2022/04/21 10:42:57;;;;;;;;;;;;;;;15.06;40.85;96413.50;4996882;28;20077;-63
2022/04/21 10:45:28;;;;;;;3.33;3.03;;;;;;;15.06;45.44;96416.16;4996360;28;19918;-61
2022/04/21 10:48:07;;;;;;;;;;;;;;;15.26;45.07;96413.19;4996651;28;20558;-61
2022/04/21 10:50:34;;;;;;;3.80;3.40;;;;;;;15.25;44.40;96414.13;4996398;28;19913;-63
2022/04/21 10:58:37;;;;;;;3.70;3.40;;;;;;;15.59;45.33;96416.53;4996415;28;20108;-63
2022/04/21 11:01:28;;;;;;;3.15;2.58;;;;;;;15.38;40.61;96421.31;4995988;28;20029;-62
2022/04/21 11:04:08;;;;;;;3.85;2.85;;;;;;;15.37;41.52;96409.91;4996040;28;20373;-61
2022/04/21 11:06:39;;;;;;;3.50;3.25;;;;;;;15.56;44.96;96418.53;4995884;28;20022;-63
2022/04/21 11:09:04;;;;;;;4.05;3.65;;;;;;;15.38;45.74;96414.25;4995905;28;20113;-62
2022/04/21 11:11:47;;;;;;;3.17;2.88;;;;;;;15.33;44.56;96413.69;4995816;28;20105;-61
2022/04/21 11:14:29;;;;;;;6.30;3.00;;;;;;;15.07;42.24;96425.72;4995784;28;20054;-63
2022/04/21 11:16:55;;;;;;;3.13;2.92;;;;;;;14.72;41.60;96424.19;4995629;28;20030;-62
2022/04/21 11:19:32;;;;;;;3.22;3.03;;;;;;;14.82;42.00;96419.25;4995335;28;20058;-63
2022/04/21 11:22:09;;;;;;;3.50;3.03;;;;;;;14.97;44.20;96430.69;4995714;28;20034;-63
2022/04/21 11:25:01;;;;;;;3.85;3.22;;;;;;;15.01;40.73;96422.53;4995703;28;20026;-62
2022/04/21 11:27:28;;;;;;;3.50;3.20;;;;;;;14.97;42.69;96414.91;4995671;28;20041;-62
2022/04/21 11:30:20;;;;;;;5.13;3.60;;;;;;;14.71;43.23;96433.00;4995373;28;20041;-62
2022/04/21 11:32:53;;;;;;;5.28;3.75;;;;;;;14.83;43.45;96423.56;4991611;28;20184;-62
2022/04/21 11:35:22;;;;;;;4.10;3.67;;;;;;;14.86;44.60;96426.03;4995379;28;20114;-62
2022/04/21 11:37:50;;;;;;;4.40;4.00;;;;;;;14.65;44.26;96415.75;4995363;28;20062;-62
2022/04/21 11:40:22;;;;;;;3.88;3.55;;;;;;;14.35;45.29;96420.03;4995126;28;20054;-63
2022/04/21 11:42:51;;;;;;;3.50;3.17;;;;;;;14.34;42.37;96420.97;4995313;28;20022;-61
2022/04/21 11:45:25;;;;;;;3.92;3.63;;;;;;;14.51;45.22;96420.00;4995331;28;20494;-63
2022/04/21 11:47:51;;;;;;;4.07;3.40;;;;;;;14.57;44.58;96410.09;4995258;28;20358;-62
2022/04/21 11:50:25;;;;;;;4.00;3.60;;;;;;;14.42;42.00;96409.16;4995056;28;20018;-61
2022/04/21 11:52:53;;;;;;;4.50;3.50;;;;;;;14.57;44.23;96408.28;4995112;28;20030;-62
2022/04/21 11:55:22;;;;;;;3.88;3.30;;;;;;;14.72;43.94;96400.47;4995008;28;20022;-63
2022/04/21 11:57:48;;;;;;;3.20;2.90;;;;;;;14.68;44.56;96397.16;4994983;28;20023;-62
2022/04/21 12:00:16;;;;;;;2.95;2.65;;;;;;;14.75;43.75;96389.78;4994945;28;20027;-62
2022/04/21 12:08:13;;;;;;;3.35;2.55;;;;;;;15.03;41.82;96375.03;4995067;28;20044;-62
2022/04/21 12:10:40;;;;;;;5.00;2.97;;;;;;;15.25;42.82;96379.03;4994635;28;20025;-62
2022/04/21 12:13:07;;;;;;;5.95;3.25;;;;;;;15.37;43.75;96365.13;4994607;28;20030;-62
2022/04/21 12:15:36;;;;;;;3.72;2.90;;;;;;;15.48;39.40;96376.81;4994540;28;20031;-62
2022/04/21 12:18:02;;;;;;;2.88;2.63;;;;;;;14.90;39.49;96370.47;4994726;28;20081;-61
2022/04/21 12:20:28;;;;;;;3.13;2.88;;;;;;;14.64;43.49;96361.44;4994471;28;20022;-63
2022/04/21 12:22:55;;;;;;;2.72;2.53;;;;;;;14.86;43.40;96363.69;4994595;28;20026;-61
2022/04/21 12:25:31;;;;;;;4.20;2.50;;;;;;;15.04;43.32;96360.91;4994514;28;20023;-63
2022/04/21 12:28:04;;;;;;;2.60;2.40;;;;;;;15.15;42.52;96357.66;4994457;28;20031;-60